Guaracai, Brazil
Current Conditions -  °F | °C
As of 12:00 PM on Monday 24 Nov 2014 (Local Time) from SBDN Reporting Station
Overcast Overcast  
Wind Chill: 79°   Ceiling: 1500
Heat Index: 81°   Visibility: 6mi
Dew Point: 70°   Wind: 7mph
Humidity: 74%   Direction: 80°E
Pressure: 29.94"   Gusts: NA
Location:  21.03°S, 51.21°W
Report Text: SBDN 241400Z 08006KT 9999 SCT008 BKN015 OVC100 26/21 Q1014
Loading
Personal Weather Stations






























Interactive Weather Map New forecast layout! Learn more

10-Day Weather Forecast

Advertisements
Track Severe Weather on mobile